createdAt,value
2024-02-22T05:01:59.576Z,69006.44
2024-02-22T05:05:04.924Z,69000.56
2024-02-22T05:08:08.259Z,69001.47
2024-02-22T05:11:11.691Z,69000.31
2024-02-22T05:14:18.025Z,68995.38
2024-02-22T05:17:22.468Z,68997.94
2024-02-22T05:20:25.223Z,69001.72
2024-02-22T05:23:28.198Z,69007.84
2024-02-22T05:26:30.919Z,69001.47
2024-02-22T05:29:33.830Z,68995.38
2024-02-22T05:32:36.449Z,68992.72
2024-02-22T05:35:39.563Z,68989.03
2024-02-22T05:38:42.235Z,68989.03
2024-02-22T05:41:45.445Z,68991.06
2024-02-22T05:44:48.161Z,68993.06
2024-02-22T05:47:51.134Z,68995.72
2024-02-22T05:50:55.728Z,68984.63
2024-02-22T05:53:58.891Z,68992.25
2024-02-22T05:57:03.022Z,68986.72
2024-02-22T06:00:07.480Z,68986.72
2024-02-22T06:03:15.395Z,68995.38
2024-02-22T06:06:18.380Z,69006.69
2024-02-22T06:09:21.015Z,69012.72
2024-02-22T06:12:23.986Z,69022.56
2024-02-22T06:15:26.653Z,69046.81
2024-02-22T06:18:29.695Z,69055.50
2024-02-22T06:21:32.799Z,69074.34
2024-02-22T06:24:36.135Z,69076.31
2024-02-22T06:27:42.892Z,69096.56
2024-02-22T06:30:46.121Z,69096.81
2024-02-22T06:33:48.908Z,69116.25
2024-02-22T06:36:52.727Z,69115.31
2024-02-22T06:39:55.397Z,69123.75
2024-02-22T06:42:58.857Z,69128.97
2024-02-22T06:46:01.557Z,69130.44
2024-02-22T06:49:06.536Z,69144.59
2024-02-22T06:52:09.273Z,69153.84
2024-02-22T06:55:14.119Z,69174.13
2024-02-22T06:58:16.882Z,69178.78
2024-02-22T07:01:19.910Z,69172.66
2024-02-22T07:04:23.175Z,69197.06
2024-02-22T07:07:26.280Z,69225.09
2024-02-22T07:10:29.062Z,69248.81
2024-02-22T07:13:34.133Z,69253.94
2024-02-22T07:16:36.961Z,69268.78
2024-02-22T07:19:44.714Z,69291.44
2024-02-22T07:22:48.801Z,69286.13
2024-02-22T07:25:52.038Z,69288.56
2024-02-22T07:28:54.807Z,69313.13
2024-02-22T07:31:57.959Z,69309.41
2024-02-22T07:35:01.756Z,69316.03
2024-02-22T07:38:07.918Z,69320.06
2024-02-22T07:41:16.726Z,69333.53
2024-02-22T07:44:19.838Z,69341.28
2024-02-22T07:47:22.581Z,69338.97
2024-02-22T07:50:28.216Z,69363.66
2024-02-22T07:53:34.901Z,69359.03
2024-02-22T07:56:41.853Z,69366.22
2024-02-22T07:59:44.602Z,69369.47
2024-02-22T08:02:47.555Z,69391.38
2024-02-22T08:05:51.787Z,69405.63
2024-02-22T08:08:54.588Z,69415.50
2024-02-22T08:11:57.489Z,69421.53
2024-02-22T08:15:00.912Z,69433.50
2024-02-22T08:18:07.050Z,69432.91
2024-02-22T08:21:10.284Z,69451.72
2024-02-22T08:24:13.277Z,69467.16
2024-02-22T08:27:15.945Z,69483.41
2024-02-22T08:30:18.845Z,69519.38
2024-02-22T08:33:25.791Z,69512.44
2024-02-22T08:36:28.721Z,69508.94
2024-02-22T08:39:31.320Z,69536.22
2024-02-22T08:42:34.202Z,69533.31
2024-02-22T08:45:37.474Z,69545.72
2024-02-22T08:48:43.572Z,69536.56
2024-02-22T08:51:46.335Z,69543.19
2024-02-22T08:54:49.203Z,69546.91
2024-02-22T08:57:54.040Z,69566.97
2024-02-22T09:00:58.152Z,69544.34
2024-02-22T09:04:00.810Z,69546.09
2024-02-22T09:07:04.497Z,69575.47
2024-02-22T09:10:07.940Z,69561.78
2024-02-22T09:13:11.739Z,69552.47
2024-02-22T09:16:14.417Z,69564.66
2024-02-22T09:19:18.663Z,69571.63
2024-02-22T09:22:21.556Z,69585.34
2024-02-22T09:25:24.741Z,69606.81
2024-02-22T09:28:27.440Z,69643.66
2024-02-22T09:31:30.384Z,69703.28
2024-02-22T09:34:33.172Z,69759.09
2024-02-22T09:37:36.242Z,69794.81
2024-02-22T09:40:39.077Z,69827.59
2024-02-22T09:43:42.229Z,69804.47
2024-02-22T09:46:50.525Z,69789.91
2024-02-22T09:49:53.663Z,69782.03
2024-02-22T09:52:57.448Z,69773.75
2024-02-22T09:56:00.805Z,69782.94
2024-02-22T09:59:03.903Z,69808.19
2024-02-22T10:02:09.974Z,69820.97
2024-02-22T10:05:13.660Z,69839.84
2024-02-22T10:08:17.099Z,69861.16
2024-02-22T10:11:22.928Z,69892.56
2024-02-22T10:14:26.214Z,69894.34
2024-02-22T10:17:31.201Z,69875.34
2024-02-22T10:20:35.065Z,69922.63
2024-02-22T10:23:38.836Z,69979.69
2024-02-22T10:26:42.349Z,69986.91
2024-02-22T10:29:45.921Z,70009.63
2024-02-22T10:32:50.297Z,70030.41
2024-02-22T10:35:53.631Z,69995.06
2024-02-22T10:38:57.804Z,70046.22
2024-02-22T10:42:03.127Z,70003.44
2024-02-22T10:45:08.064Z,70005.22
2024-02-22T10:48:12.925Z,70013.38
2024-02-22T10:51:19.759Z,70034.31
2024-02-22T10:54:23.848Z,70045.53
2024-02-22T10:57:33.619Z,70084.81
2024-02-22T11:00:37.058Z,70103.81
2024-02-22T11:03:40.281Z,70114.91
2024-02-22T11:06:44.868Z,70115.81
2024-02-22T11:09:48.903Z,70146.59
2024-02-22T11:12:52.662Z,70199.13
2024-02-22T11:15:55.261Z,70206.69
2024-02-22T11:19:13.729Z,70174.97
2024-02-22T11:22:19.428Z,70144.06
2024-02-22T11:25:24.980Z,70073.16
2024-02-22T11:28:28.272Z,70052.75
2024-02-22T11:31:31.940Z,70067.53
2024-02-22T11:34:36.369Z,70054.13
2024-02-22T11:37:39.462Z,70061.84
2024-02-22T11:40:43.258Z,70070.81
2024-02-22T11:43:46.221Z,70060.69
2024-02-22T11:46:49.022Z,70075.25
2024-02-22T11:49:53.766Z,70053.56
2024-02-22T11:52:59.977Z,70070.00
2024-02-22T11:56:03.588Z,70085.03
2024-02-22T11:59:07.403Z,70101.13
2024-02-22T12:02:10.716Z,70103.44
2024-02-22T12:05:14.945Z,70087.13
2024-02-22T12:08:17.901Z,70092.50
2024-02-22T12:11:21.884Z,70066.38
2024-02-22T12:14:24.674Z,70031.78
2024-02-22T12:17:27.852Z,70027.81
2024-02-22T12:20:30.625Z,70016.03
2024-02-22T12:23:33.716Z,69996.78
2024-02-22T12:26:37.343Z,69988.06
2024-02-22T12:29:40.990Z,69968.63
2024-02-22T12:32:51.748Z,69999.72
2024-02-22T12:35:55.396Z,70035.03
2024-02-22T12:38:59.608Z,70065.00
2024-02-22T12:42:03.979Z,70070.81
2024-02-22T12:45:07.176Z,70103.81
2024-02-22T12:48:10.418Z,70140.91
2024-02-22T12:51:16.580Z,70172.88
2024-02-22T12:54:24.077Z,70168.44
2024-02-22T12:57:26.767Z,70136.22
2024-02-22T13:00:30.113Z,70098.00
2024-02-22T13:03:32.923Z,70084.81
2024-02-22T13:06:37.390Z,70078.97
2024-02-22T13:09:40.242Z,70063.25
2024-02-22T13:12:43.230Z,70038.78
2024-02-22T13:15:47.381Z,70026.53
2024-02-22T13:18:51.426Z,70007.66
2024-02-22T13:21:54.390Z,70008.22
2024-02-22T13:24:57.308Z,70024.34
2024-02-22T13:28:00.025Z,70027.34
2024-02-22T13:31:03.079Z,70049.84
2024-02-22T13:34:05.747Z,70037.81
2024-02-22T13:37:08.717Z,70048.22
2024-02-22T13:40:15.796Z,70047.88
2024-02-22T13:43:19.945Z,70040.50
2024-02-22T13:46:23.819Z,70037.00
2024-02-22T13:49:27.442Z,70022.09
2024-02-22T13:52:30.607Z,70006.47
2024-02-22T13:55:33.815Z,69992.16
2024-02-22T13:58:40.853Z,69980.50
2024-02-22T14:01:44.056Z,69966.50
2024-02-22T14:04:47.324Z,69943.22
2024-02-22T14:07:53.495Z,69936.22
2024-02-22T14:10:56.681Z,69943.22
2024-02-22T14:13:59.396Z,69939.16
2024-02-22T14:17:03.640Z,69933.91
2024-02-22T14:20:07.853Z,69930.88
2024-02-22T14:23:13.744Z,69928.22
2024-02-22T14:26:17.776Z,69912.03
2024-02-22T14:29:22.199Z,69901.09
2024-02-22T14:32:26.423Z,69882.44
2024-02-22T14:35:29.475Z,69886.53
2024-02-22T14:38:34.490Z,69873.38
2024-02-22T14:41:38.376Z,69866.38
2024-02-22T14:44:43.569Z,69861.38
2024-02-22T14:47:47.166Z,69870.69
2024-02-22T14:50:49.909Z,69868.97
2024-02-22T14:53:52.725Z,69880.00
2024-02-22T14:56:55.441Z,69878.03
2024-02-22T14:59:58.273Z,69885.03
2024-02-22T15:03:00.854Z,69874.75
2024-02-22T15:06:09.785Z,69876.84
2024-02-22T15:09:17.480Z,69878.97
2024-02-22T15:12:20.717Z,69887.94
2024-02-22T15:15:23.407Z,69879.19
2024-02-22T15:18:26.412Z,69880.34
2024-02-22T15:21:29.415Z,69882.44
2024-02-22T15:24:32.888Z,69873.03
2024-02-22T15:27:40.097Z,69877.09
2024-02-22T15:30:42.930Z,69875.47
2024-02-22T15:33:47.107Z,69873.59
2024-02-22T15:36:56.963Z,69878.03
2024-02-22T15:40:00.337Z,69880.94
2024-02-22T15:43:03.444Z,69880.34
2024-02-22T15:46:06.034Z,69875.13
2024-02-22T15:49:16.177Z,69871.41
2024-02-22T15:52:19.302Z,69855.34
2024-02-22T15:55:22.764Z,69855.91
2024-02-22T15:58:25.457Z,69876.84
2024-02-22T16:01:31.426Z,69879.19
2024-02-22T16:04:37.055Z,69877.09
2024-02-22T16:07:42.934Z,69894.69
2024-02-22T16:10:46.113Z,69875.94
2024-02-22T16:13:48.895Z,69877.44
2024-02-22T16:16:53.269Z,69882.44
2024-02-22T16:19:55.992Z,69874.31
2024-02-22T16:22:59.467Z,69876.28
2024-02-22T16:26:02.100Z,69876.03
2024-02-22T16:29:05.164Z,69873.72
2024-02-22T16:32:07.939Z,69860.78
2024-02-22T16:35:15.474Z,69868.84
2024-02-22T16:38:20.495Z,69860.56
2024-02-22T16:41:27.804Z,69849.25
2024-02-22T16:44:31.010Z,69837.25
2024-02-22T16:47:34.313Z,69841.13
2024-02-22T16:50:37.103Z,69828.09
2024-02-22T16:53:40.050Z,69819.13
2024-02-22T16:56:44.630Z,69823.66
